Time;durP1;ratioP1;P1;durP2;ratioP2;P2;SDS_P1;SDS_P2;PMS_P1;PMS_P2;Temp;Humidity;BMP_temperature;BMP_pressure;BME280_temperature;BME280_humidity;BME280_pressure;Samples;Min_cycle;Max_cycle;Signal;HPM_P1;HPM_P2
2020/12/18 00:01:07;;;;;;;4.95;2.05;;;20.80;45.30;;;;;;5049168;28;20067;-77
2020/12/18 00:03:33;;;;;;;0.20;0.10;;;20.80;45.30;;;;;;5068984;28;20029;-77
2020/12/18 00:05:58;;;;;;;6.22;2.28;;;20.80;45.30;;;;;;5074128;28;20081;-74
2020/12/18 00:08:24;;;;;;;3.75;1.80;;;20.80;45.30;;;;;;5055486;28;20028;-75
2020/12/18 00:10:49;;;;;;;1.30;1.05;;;20.70;45.30;;;;;;5023070;28;20093;-75
2020/12/18 00:13:15;;;;;;;3.97;1.90;;;20.70;45.20;;;;;;5037296;28;20068;-75
2020/12/18 00:15:52;;;;;;;3.30;1.67;;;20.70;45.10;;;;;;5073871;28;20032;-75
2020/12/18 00:18:17;;;;;;;5.30;2.38;;;20.70;45.10;;;;;;5045348;28;20037;-74
2020/12/18 00:20:43;;;;;;;2.80;1.17;;;20.70;45.20;;;;;;5038252;28;20053;-74
2020/12/18 00:23:08;;;;;;;4.57;1.02;;;20.70;45.10;;;;;;5052536;28;20043;-75
2020/12/18 00:25:34;;;;;;;3.03;1.65;;;20.70;45.10;;;;;;5052160;28;20067;-75
2020/12/18 00:28:06;;;;;;;2.22;1.60;;;20.70;45.10;;;;;;5037180;28;20502;-75
2020/12/18 00:30:31;;;;;;;1.15;0.68;;;20.70;45.10;;;;;;5055737;28;20037;-75
2020/12/18 00:32:57;;;;;;;2.08;0.75;;;20.60;45.20;;;;;;5038947;28;20128;-75
2020/12/18 00:35:22;;;;;;;3.88;1.23;;;20.60;45.10;;;;;;5055426;28;20032;-75
2020/12/18 00:37:48;;;;;;;6.63;1.30;;;20.60;45.70;;;;;;5063554;28;20074;-75
2020/12/18 00:40:14;;;;;;;2.33;1.27;;;20.60;45.10;;;;;;5055070;28;20055;-75
2020/12/18 00:42:39;;;;;;;2.65;1.35;;;20.60;45.00;;;;;;5057176;28;20081;-78
2020/12/18 00:45:05;;;;;;;2.63;1.45;;;20.60;45.10;;;;;;5075003;28;20032;-78
2020/12/18 00:47:30;;;;;;;1.80;1.10;;;20.60;45.00;;;;;;5066240;28;20515;-75
2020/12/18 00:49:56;;;;;;;7.22;1.70;;;20.60;45.10;;;;;;5044163;28;20109;-77
2020/12/18 00:52:24;;;;;;;4.88;1.23;;;20.50;45.10;;;;;;5049503;28;20024;-80
2020/12/18 00:54:50;;;;;;;5.10;1.10;;;20.50;45.10;;;;;;5035249;28;20557;-78
2020/12/18 00:57:15;;;;;;;4.00;1.25;;;20.50;45.10;;;;;;5045239;28;20108;-78
2020/12/18 00:59:50;;;;;;;2.53;0.52;;;20.50;45.10;;;;;;5070852;28;20029;-77
2020/12/18 01:02:16;;;;;;;3.75;1.27;;;20.50;45.10;;;;;;5054340;28;20078;-76
2020/12/18 01:04:41;;;;;;;1.52;1.02;;;20.50;45.10;;;;;;5044950;28;20041;-77
2020/12/18 01:07:07;;;;;;;1.15;0.65;;;20.50;45.10;;;;;;5059555;28;20041;-76
2020/12/18 01:09:32;;;;;;;4.32;1.55;;;20.50;45.20;;;;;;5058337;28;20036;-77
2020/12/18 01:11:58;;;;;;;5.03;1.73;;;20.50;45.10;;;;;;5044553;28;20112;-76
2020/12/18 01:14:23;;;;;;;3.10;1.60;;;20.40;45.10;;;;;;5036054;28;20064;-77
2020/12/18 01:16:53;;;;;;;5.80;1.50;;;20.40;45.00;;;;;;5065153;28;20028;-78
2020/12/18 01:19:18;;;;;;;2.97;1.05;;;20.40;45.00;;;;;;5035643;28;20027;-78
2020/12/18 01:21:47;;;;;;;2.65;0.52;;;20.40;45.10;;;;;;5038306;28;20560;-77
2020/12/18 01:24:13;;;;;;;1.92;1.00;;;20.40;45.00;;;;;;5038246;28;20029;-79
2020/12/18 01:26:39;;;;;;;2.03;0.88;;;20.40;45.10;;;;;;5054980;28;20078;-78
2020/12/18 01:29:04;;;;;;;1.35;0.75;;;20.40;45.10;;;;;;5077495;28;20039;-79
2020/12/18 01:31:30;;;;;;;1.75;0.40;;;20.40;45.20;;;;;;5050447;28;20049;-79
2020/12/18 01:33:59;;;;;;;3.53;0.98;;;20.40;45.10;;;;;;5049527;28;20017;-78
2020/12/18 01:36:24;;;;;;;3.08;1.05;;;20.30;45.10;;;;;;5053277;28;20028;-78
2020/12/18 01:38:50;;;;;;;3.05;1.23;;;20.40;45.10;;;;;;5040898;28;20026;-74
2020/12/18 01:41:16;;;;;;;2.92;1.40;;;20.30;45.10;;;;;;5032994;28;20504;-74
2020/12/18 01:43:41;;;;;;;1.23;0.55;;;20.30;45.10;;;;;;5042456;28;20026;-74
2020/12/18 01:46:29;;;;;;;2.38;0.47;;;20.30;45.00;;;;;;5032820;28;20029;-75
2020/12/18 01:48:55;;;;;;;4.55;1.17;;;20.30;45.00;;;;;;5023464;28;20147;-74
2020/12/18 01:51:20;;;;;;;2.22;1.17;;;20.30;45.00;;;;;;5048112;28;20548;-74
2020/12/18 01:53:55;;;;;;;5.00;1.10;;;20.30;45.00;;;;;;5041536;28;20021;-75
2020/12/18 01:56:21;;;;;;;4.55;1.52;;;20.30;45.00;;;;;;5035809;28;20032;-77
2020/12/18 01:58:46;;;;;;;4.43;1.27;;;20.30;45.00;;;;;;5004430;28;20034;-76
2020/12/18 02:01:12;;;;;;;3.08;1.10;;;20.30;45.00;;;;;;5038556;28;20030;-77
2020/12/18 02:03:38;;;;;;;2.53;0.77;;;20.30;45.00;;;;;;5013428;28;20532;-77
2020/12/18 02:06:14;;;;;;;2.40;1.05;;;20.30;45.00;;;;;;5044746;28;20017;-77
2020/12/18 02:08:40;;;;;;;1.30;0.43;;;20.30;45.00;;;;;;5038354;28;20437;-77
2020/12/18 02:11:06;;;;;;;3.65;0.88;;;20.30;45.00;;;;;;5038710;28;20121;-76
2020/12/18 02:13:31;;;;;;;4.22;1.52;;;20.30;45.00;;;;;;5031748;28;20104;-77
2020/12/18 02:15:57;;;;;;;2.08;1.02;;;20.30;45.00;;;;;;5037077;28;20049;-75
2020/12/18 02:18:23;;;;;;;3.00;1.55;;;20.30;45.00;;;;;;5042255;28;20021;-76
2020/12/18 02:20:52;;;;;;;6.20;1.60;;;20.30;45.00;;;;;;5019286;28;20413;-78
2020/12/18 02:23:17;;;;;;;7.53;1.20;;;20.30;45.10;;;;;;5053370;28;20030;-77
2020/12/18 02:25:43;;;;;;;0.00;0.00;;;20.20;44.90;;;;;;5038446;28;20082;-79
2020/12/18 02:28:15;;;;;;;5.35;1.33;;;20.20;45.60;;;;;;5035687;28;20524;-79
2020/12/18 02:30:40;;;;;;;3.00;1.05;;;20.20;45.00;;;;;;5055551;28;20025;-79
2020/12/18 02:33:16;;;;;;;1.70;0.90;;;20.20;45.00;;;;;;5019480;28;20102;-77
2020/12/18 02:35:41;;;;;;;;;;;20.20;45.00;;;;;;5021455;28;20021;-76
2020/12/18 02:38:11;;;;;;;3.55;1.15;;;20.20;45.10;;;;;;5044093;28;19920;-74
2020/12/18 02:40:36;;;;;;;2.22;1.10;;;20.20;45.00;;;;;;5036331;28;20029;-74
2020/12/18 02:43:02;;;;;;;6.82;1.90;;;20.20;45.70;;;;;;5046563;28;20104;-74
2020/12/18 02:45:28;;;;;;;2.78;0.93;;;20.20;45.00;;;;;;5037318;28;20481;-75
2020/12/18 02:47:53;;;;;;;4.03;1.25;;;20.20;45.10;;;;;;5054254;28;20103;-75
2020/12/18 02:50:19;;;;;;;3.78;1.40;;;20.20;45.10;;;;;;5010682;28;20052;-75
2020/12/18 02:52:44;;;;;;;2.63;1.10;;;20.10;45.00;;;;;;5039924;28;20009;-75
2020/12/18 02:55:10;;;;;;;4.47;1.30;;;20.10;45.00;;;;;;5038730;28;20507;-75
2020/12/18 02:57:35;;;;;;;2.38;0.95;;;20.10;45.10;;;;;;5017653;28;20436;-75
2020/12/18 03:00:01;;;;;;;0.45;0.28;;;20.10;45.00;;;;;;5052542;28;20033;-75
2020/12/18 03:02:26;;;;;;;4.85;1.38;;;20.10;45.00;;;;;;5034636;28;20123;-78
2020/12/18 03:04:58;;;;;;;0.30;0.30;;;20.10;45.00;;;;;;5053713;28;20075;-78
2020/12/18 03:07:24;;;;;;;0.38;0.13;;;20.10;45.00;;;;;;5028530;28;20029;-79
2020/12/18 03:09:49;;;;;;;0.47;0.38;;;20.10;45.00;;;;;;5017969;28;20037;-79
2020/12/18 03:12:15;;;;;;;2.58;0.70;;;20.10;45.10;;;;;;5017907;28;20056;-79
2020/12/18 03:14:40;;;;;;;0.20;0.20;;;20.00;45.00;;;;;;5054836;28;20029;-76
2020/12/18 03:17:06;;;;;;;4.28;0.93;;;20.00;45.00;;;;;;5058309;28;20035;-77
2020/12/18 03:19:41;;;;;;;2.60;0.77;;;20.00;45.00;;;;;;5025697;28;20489;-77
2020/12/18 03:22:06;;;;;;;3.67;0.47;;;20.00;45.00;;;;;;5036632;28;20029;-77
2020/12/18 03:24:32;;;;;;;3.30;0.43;;;20.00;45.10;;;;;;5017961;28;20032;-77
2020/12/18 03:26:57;;;;;;;1.73;1.13;;;20.00;45.10;;;;;;5032600;28;20047;-81
2020/12/18 03:29:23;;;;;;;1.70;0.80;;;20.00;45.10;;;;;;5036973;28;20082;-81
2020/12/18 03:31:48;;;;;;;5.05;0.70;;;20.00;45.10;;;;;;5037570;28;20138;-81
2020/12/18 03:34:14;;;;;;;4.05;0.98;;;20.00;45.10;;;;;;5058435;28;20028;-79
2020/12/18 03:36:40;;;;;;;7.57;1.25;;;20.00;45.10;;;;;;5068716;28;20017;-80
2020/12/18 03:39:08;;;;;;;2.30;0.50;;;20.00;45.70;;;;;;5025853;28;20017;-79
2020/12/18 03:41:34;;;;;;;2.75;1.20;;;20.00;45.00;;;;;;5036094;28;20044;-79
2020/12/18 03:44:00;;;;;;;3.72;0.80;;;20.00;45.10;;;;;;5036462;28;20029;-78
2020/12/18 03:46:26;;;;;;;5.22;1.25;;;20.00;45.00;;;;;;5035704;28;20037;-79
2020/12/18 03:48:53;;;;;;;3.30;0.80;;;20.00;45.00;;;;;;5021561;28;20032;-80
2020/12/18 03:51:19;;;;;;;3.40;0.88;;;20.00;45.00;;;;;;5017085;28;20080;-80
2020/12/18 03:53:44;;;;;;;2.30;1.20;;;20.00;45.00;;;;;;5041349;28;20017;-80
2020/12/18 03:56:10;;;;;;;4.60;1.15;;;20.00;45.00;;;;;;5029895;28;20052;-80
2020/12/18 03:58:35;;;;;;;1.65;0.80;;;20.00;45.00;;;;;;5035108;28;20100;-80
2020/12/18 04:01:10;;;;;;;3.50;1.10;;;20.00;45.10;;;;;;5041590;28;20033;-76
2020/12/18 04:03:36;;;;;;;0.80;0.75;;;20.00;45.10;;;;;;5034059;28;20037;-78
2020/12/18 04:06:01;;;;;;;0.47;0.38;;;20.00;45.00;;;;;;5035597;28;20035;-78
2020/12/18 04:08:27;;;;;;;1.20;0.25;;;20.00;45.00;;;;;;5059505;28;20060;-78
2020/12/18 04:10:52;;;;;;;2.65;0.40;;;20.00;45.00;;;;;;5058151;28;20393;-76
2020/12/18 04:13:18;;;;;;;0.20;0.20;;;20.00;45.00;;;;;;5046580;28;20017;-75
2020/12/18 04:15:43;;;;;;;4.60;0.50;;;20.00;45.00;;;;;;5035955;28;20488;-75
2020/12/18 04:18:10;;;;;;;1.50;0.40;;;20.00;45.00;;;;;;5035499;28;20412;-75
2020/12/18 04:20:36;;;;;;;3.67;0.90;;;19.90;45.00;;;;;;5030062;28;20047;-79
2020/12/18 04:23:02;;;;;;;2.92;0.75;;;19.90;45.00;;;;;;5039043;28;20029;-78
2020/12/18 04:25:27;;;;;;;2.45;0.82;;;19.90;45.00;;;;;;5036142;28;20028;-81
2020/12/18 04:27:53;;;;;;;7.40;1.25;;;19.90;44.90;;;;;;5053866;28;20051;-81
2020/12/18 04:30:18;;;;;;;6.07;0.80;;;19.90;45.00;;;;;;5065585;28;20035;-81
2020/12/18 04:32:44;;;;;;;3.30;1.05;;;19.90;45.00;;;;;;5053355;28;20478;-79
2020/12/18 04:35:17;;;;;;;2.58;0.63;;;19.90;45.10;;;;;;5053387;28;20029;-78
2020/12/18 04:37:42;;;;;;;2.55;0.80;;;19.90;45.10;;;;;;5050461;28;20396;-79
2020/12/18 04:40:08;;;;;;;2.45;0.57;;;19.90;45.10;;;;;;5017952;28;20104;-79
2020/12/18 04:42:34;;;;;;;5.22;0.93;;;19.90;45.10;;;;;;5031278;28;20037;-78
2020/12/18 04:45:03;;;;;;;7.10;1.10;;;19.90;45.10;;;;;;4998823;28;20178;-75
2020/12/18 04:47:39;;;;;;;0.55;0.25;;;19.80;45.10;;;;;;5051046;28;20099;-75
2020/12/18 04:50:05;;;;;;;0.75;0.20;;;19.80;45.10;;;;;;5035705;28;20021;-75
2020/12/18 04:52:30;;;;;;;4.60;0.82;;;19.80;45.10;;;;;;5033123;28;20174;-74
2020/12/18 04:54:59;;;;;;;4.88;1.08;;;19.80;45.10;;;;;;5007727;28;20021;-75
2020/12/18 04:57:24;;;;;;;1.08;0.50;;;19.80;45.10;;;;;;5052497;28;20056;-75
2020/12/18 04:59:50;;;;;;;2.05;0.17;;;19.80;45.20;;;;;;5035447;28;20056;-77
2020/12/18 05:02:25;;;;;;;1.08;0.43;;;19.80;45.20;;;;;;5023011;28;20022;-79
2020/12/18 05:04:53;;;;;;;0.20;0.13;;;19.80;45.20;;;;;;5021505;28;20041;-79
2020/12/18 05:07:19;;;;;;;0.45;0.20;;;19.80;45.20;;;;;;5022485;28;20033;-81
2020/12/18 05:09:57;;;;;;;0.63;0.25;;;19.80;45.30;;;;;;5035361;28;20409;-80
2020/12/18 05:12:22;;;;;;;0.30;0.22;;;19.90;45.30;;;;;;5033136;28;20033;-80
2020/12/18 05:14:48;;;;;;;0.40;0.10;;;19.80;45.20;;;;;;5034379;28;20078;-80
2020/12/18 05:17:13;;;;;;;0.45;0.35;;;19.90;45.30;;;;;;5057523;28;20033;-75
2020/12/18 05:19:41;;;;;;;2.45;0.30;;;19.90;45.30;;;;;;5035425;28;20034;-74
2020/12/18 05:22:13;;;;;;;1.38;0.20;;;20.00;45.20;;;;;;5015119;28;20048;-74
2020/12/18 05:24:41;;;;;;;2.40;0.60;;;20.00;45.80;;;;;;5030442;28;20464;-74
2020/12/18 05:27:08;;;;;;;0.17;0.17;;;20.00;45.20;;;;;;5018429;28;20040;-74
2020/12/18 05:29:36;;;;;;;1.67;0.50;;;20.10;45.20;;;;;;5022620;28;20562;-74
2020/12/18 05:32:02;;;;;;;0.45;0.25;;;20.10;45.10;;;;;;5032503;28;20120;-73
2020/12/18 05:34:28;;;;;;;0.70;0.40;;;20.20;45.10;;;;;;5020435;28;20440;-74
2020/12/18 05:36:54;;;;;;;0.30;0.30;;;20.20;45.10;;;;;;5032565;28;20532;-73
2020/12/18 05:39:20;;;;;;;0.47;0.30;;;20.20;45.00;;;;;;5033042;28;20033;-74
2020/12/18 05:41:57;;;;;;;0.30;0.20;;;20.20;44.90;;;;;;5036336;28;20413;-73
2020/12/18 05:44:26;;;;;;;0.80;0.35;;;20.30;45.00;;;;;;5023222;28;20080;-73
2020/12/18 05:47:08;;;;;;;0.28;0.28;;;20.30;44.90;;;;;;5042792;28;20037;-73
2020/12/18 05:49:35;;;;;;;0.68;0.52;;;20.40;44.90;;;;;;5056160;28;20032;-74
2020/12/18 05:52:02;;;;;;;0.63;0.35;;;20.40;44.80;;;;;;5056633;28;20087;-74
2020/12/18 05:54:35;;;;;;;1.38;0.47;;;20.40;44.80;;;;;;5038347;28;20025;-73
2020/12/18 05:57:11;;;;;;;1.35;0.30;;;20.40;44.80;;;;;;5037161;28;20044;-74
2020/12/18 05:59:51;;;;;;;0.38;0.22;;;20.40;44.70;;;;;;5055933;28;20048;-74
2020/12/18 06:02:17;;;;;;;0.95;0.22;;;20.40;44.70;;;;;;5036161;28;20041;-74
2020/12/18 06:04:44;;;;;;;0.40;0.28;;;20.50;44.70;;;;;;5032071;28;20082;-75
2020/12/18 06:07:10;;;;;;;0.22;0.20;;;20.50;44.70;;;;;;5022028;28;20045;-74
2020/12/18 06:09:36;;;;;;;0.38;0.30;;;20.50;44.70;;;;;;5037605;28;20075;-74
2020/12/18 06:12:08;;;;;;;1.42;0.40;;;20.50;44.70;;;;;;5038729;28;20079;-75
2020/12/18 06:14:34;;;;;;;0.52;0.32;;;20.50;44.70;;;;;;5037221;28;20029;-81
2020/12/18 06:17:05;;;;;;;2.40;0.43;;;20.50;45.40;;;;;;5043466;28;20029;-81
2020/12/18 06:19:31;;;;;;;0.57;0.20;;;20.50;44.80;;;;;;5058616;28;20021;-81
2020/12/18 06:21:58;;;;;;;1.27;0.40;;;20.40;44.80;;;;;;5038733;28;20033;-81
2020/12/18 06:24:24;;;;;;;0.70;0.40;;;20.50;44.80;;;;;;5020832;28;20025;-80
2020/12/18 06:26:54;;;;;;;0.65;0.38;;;20.50;44.80;;;;;;5018738;28;20029;-80
2020/12/18 06:29:21;;;;;;;0.73;0.40;;;20.50;44.90;;;;;;5054540;28;20499;-79
2020/12/18 06:31:47;;;;;;;0.43;0.30;;;20.50;44.90;;;;;;5038136;28;20049;-73
2020/12/18 06:34:33;;;;;;;0.75;0.30;;;20.50;45.00;;;;;;5032768;28;20021;-73
2020/12/18 06:37:01;;;;;;;1.55;0.40;;;20.50;44.90;;;;;;5057423;28;20033;-73
2020/12/18 06:39:35;;;;;;;1.25;0.20;;;20.50;44.80;;;;;;5047419;28;20396;-74
2020/12/18 06:42:20;;;;;;;0.90;0.30;;;20.50;44.80;;;;;;5036115;28;20507;-75
2020/12/18 06:44:53;;;;;;;2.75;0.70;;;20.50;44.90;;;;;;5027164;28;20390;-79
2020/12/18 06:47:25;;;;;;;0.20;0.20;;;20.50;44.90;;;;;;5056853;28;20495;-79
2020/12/18 06:50:11;;;;;;;0.77;0.30;;;20.50;44.90;;;;;;5053907;28;20047;-79
2020/12/18 06:52:46;;;;;;;1.13;0.35;;;20.60;45.00;;;;;;5053518;28;20024;-79
2020/12/18 06:55:32;;;;;;;0.95;0.50;;;20.60;44.90;;;;;;5055465;28;20021;-80
2020/12/18 06:58:07;;;;;;;0.40;0.40;;;20.60;44.80;;;;;;5044371;28;20020;-78
2020/12/18 07:00:56;;;;;;;1.52;0.40;;;20.60;44.70;;;;;;5060283;28;20033;-78
2020/12/18 07:03:47;;;;;;;0.82;0.52;;;20.70;44.70;;;;;;5057148;28;20086;-78
2020/12/18 07:06:24;;;;;;;3.85;0.52;;;20.70;44.50;;;;;;5055698;28;20028;-75
2020/12/18 07:08:50;;;;;;;1.00;0.40;;;20.80;44.40;;;;;;5040276;28;20392;-74
2020/12/18 07:11:16;;;;;;;2.10;0.40;;;20.80;44.30;;;;;;5064837;28;20033;-74
2020/12/18 07:13:47;;;;;;;1.17;0.60;;;20.90;44.20;;;;;;5055148;28;20028;-73
2020/12/18 07:16:13;;;;;;;1.00;0.70;;;20.90;44.20;;;;;;5058187;28;20037;-74
2020/12/18 07:18:42;;;;;;;1.15;0.93;;;20.90;44.10;;;;;;5076234;28;20104;-74
2020/12/18 07:21:12;;;;;;;0.68;0.68;;;20.90;44.20;;;;;;5075132;28;20037;-74
2020/12/18 07:23:42;;;;;;;2.15;1.15;;;20.80;44.10;;;;;;5057123;28;20021;-74
2020/12/18 07:26:08;;;;;;;1.80;0.90;;;20.80;44.20;;;;;;5068858;28;20040;-75
2020/12/18 07:28:37;;;;;;;2.88;1.02;;;20.80;44.20;;;;;;5041571;28;20048;-75
2020/12/18 07:31:12;;;;;;;3.50;1.00;;;20.80;44.20;;;;;;5039627;28;20074;-74
2020/12/18 07:33:38;;;;;;;0.95;0.70;;;20.80;44.20;;;;;;5074147;28;20044;-77
2020/12/18 07:36:03;;;;;;;1.05;0.57;;;20.70;44.20;;;;;;5074558;28;20043;-76
2020/12/18 07:38:32;;;;;;;2.50;1.23;;;20.80;44.30;;;;;;5056868;28;20033;-76
2020/12/18 07:41:03;;;;;;;0.93;0.50;;;20.80;45.00;;;;;;5057445;28;20032;-77
2020/12/18 07:43:30;;;;;;;1.95;0.77;;;20.80;44.30;;;;;;5040920;28;20037;-77
2020/12/18 07:45:56;;;;;;;1.45;0.68;;;20.70;44.30;;;;;;5058762;28;20047;-77
2020/12/18 07:48:26;;;;;;;4.82;0.70;;;20.70;44.30;;;;;;5075191;28;20511;-77
2020/12/18 07:51:05;;;;;;;1.35;0.57;;;20.70;44.40;;;;;;5076118;28;20024;-77
2020/12/18 07:53:35;;;;;;;0.57;0.57;;;20.70;44.30;;;;;;5042471;28;20018;-77
2020/12/18 07:56:27;;;;;;;1.85;0.98;;;20.70;44.40;;;;;;5042699;28;20025;-77
2020/12/18 07:59:04;;;;;;;0.95;0.50;;;20.70;44.40;;;;;;5068997;28;20036;-77
2020/12/18 08:01:34;;;;;;;2.38;0.40;;;20.70;44.50;;;;;;5058718;28;20070;-78
2020/12/18 08:04:04;;;;;;;0.98;0.52;;;20.70;44.50;;;;;;5058284;28;20021;-78
2020/12/18 08:06:33;;;;;;;0.63;0.63;;;20.70;44.50;;;;;;5060214;28;20029;-77
2020/12/18 08:09:09;;;;;;;0.77;0.35;;;20.70;44.50;;;;;;5079342;28;20040;-77
2020/12/18 08:11:37;;;;;;;1.08;0.63;;;20.70;44.50;;;;;;5059325;28;20041;-78
2020/12/18 08:14:04;;;;;;;1.05;0.43;;;20.70;44.50;;;;;;5043049;28;20067;-76
2020/12/18 08:16:31;;;;;;;2.47;0.60;;;20.70;44.60;;;;;;5075796;28;20082;-77
2020/12/18 08:19:10;;;;;;;1.10;0.40;;;20.60;44.60;;;;;;5041799;28;20039;-77
2020/12/18 08:21:44;;;;;;;1.00;0.45;;;20.60;45.30;;;;;;5079771;28;20024;-77
2020/12/18 08:24:09;;;;;;;0.40;0.40;;;20.60;44.70;;;;;;5042737;28;20100;-77
2020/12/18 08:26:45;;;;;;;1.45;0.60;;;20.60;44.70;;;;;;5078069;28;20101;-77
2020/12/18 08:29:14;;;;;;;0.88;0.68;;;20.60;45.40;;;;;;5027776;28;20075;-76
2020/12/18 08:31:43;;;;;;;2.33;0.40;;;20.50;44.80;;;;;;5045047;28;20055;-77
2020/12/18 08:34:11;;;;;;;0.20;0.20;;;20.50;44.80;;;;;;5063338;28;20036;-76
2020/12/18 08:36:43;;;;;;;2.65;0.68;;;20.50;44.80;;;;;;5063381;28;20016;-77
2020/12/18 08:39:10;;;;;;;0.40;0.40;;;20.50;45.50;;;;;;5045568;28;20043;-77
2020/12/18 08:41:51;;;;;;;1.20;0.43;;;20.40;44.80;;;;;;5062490;28;20016;-78
2020/12/18 08:44:18;;;;;;;0.98;0.50;;;20.40;44.80;;;;;;5079606;28;20054;-77
2020/12/18 08:46:44;;;;;;;0.85;0.55;;;20.50;44.80;;;;;;5061102;28;20021;-77
2020/12/18 08:49:11;;;;;;;1.30;0.30;;;20.50;44.80;;;;;;5045085;28;20040;-77
2020/12/18 08:51:37;;;;;;;2.72;0.40;;;20.50;44.80;;;;;;5045779;28;20029;-77
2020/12/18 08:54:03;;;;;;;0.75;0.40;;;20.50;44.70;;;;;;5045235;28;20052;-78
2020/12/18 08:56:29;;;;;;;0.40;0.35;;;20.50;44.80;;;;;;5047936;28;20033;-77
2020/12/18 08:59:01;;;;;;;0.63;0.52;;;20.50;45.40;;;;;;5047326;28;20024;-77
2020/12/18 09:01:27;;;;;;;0.30;0.20;;;20.50;44.70;;;;;;5047059;28;20037;-78
2020/12/18 09:03:53;;;;;;;0.60;0.30;;;20.50;44.70;;;;;;5064479;28;20021;-78
2020/12/18 09:06:18;;;;;;;1.65;0.45;;;20.50;44.80;;;;;;5064758;28;20028;-78
2020/12/18 09:08:44;;;;;;;0.73;0.43;;;20.50;44.80;;;;;;5047927;28;20111;-78
2020/12/18 09:11:10;;;;;;;0.30;0.30;;;20.50;44.80;;;;;;5063205;28;20108;-77
2020/12/18 09:13:39;;;;;;;0.25;0.25;;;20.50;44.80;;;;;;5047445;28;20020;-78
2020/12/18 09:16:08;;;;;;;1.98;0.60;;;20.60;44.80;;;;;;5065515;28;20513;-77
2020/12/18 09:18:44;;;;;;;1.10;0.30;;;20.60;44.80;;;;;;5066434;28;20025;-77
2020/12/18 09:21:12;;;;;;;0.40;0.40;;;20.60;44.70;;;;;;5082859;28;20074;-76
2020/12/18 09:23:37;;;;;;;0.57;0.35;;;20.60;44.70;;;;;;5080884;28;20039;-77
2020/12/18 09:26:03;;;;;;;1.23;0.43;;;20.60;44.70;;;;;;5046818;28;20464;-77
2020/12/18 09:28:43;;;;;;;0.88;0.35;;;20.70;44.70;;;;;;5081926;28;20025;-77
2020/12/18 09:31:09;;;;;;;1.23;0.55;;;20.70;44.60;;;;;;5063452;28;20025;-77
2020/12/18 09:33:36;;;;;;;0.60;0.30;;;20.70;44.60;;;;;;5044844;28;20036;-77
2020/12/18 09:36:12;;;;;;;0.43;0.40;;;20.70;44.50;;;;;;5061366;28;20029;-77
2020/12/18 09:38:39;;;;;;;2.47;0.50;;;20.70;44.50;;;;;;5061211;28;20380;-77
2020/12/18 09:41:07;;;;;;;0.57;0.43;;;20.70;44.60;;;;;;5060803;28;20476;-76
2020/12/18 09:43:33;;;;;;;0.28;0.28;;;20.70;44.60;;;;;;5045096;28;20033;-77
2020/12/18 09:45:59;;;;;;;0.60;0.40;;;20.70;44.60;;;;;;5079115;28;20142;-77
2020/12/18 09:48:25;;;;;;;1.77;0.35;;;20.70;44.60;;;;;;5060579;28;20028;-77
2020/12/18 09:50:55;;;;;;;0.73;0.60;;;20.70;44.70;;;;;;5045391;28;20084;-77
2020/12/18 09:53:21;;;;;;;0.65;0.52;;;20.70;44.60;;;;;;5046900;28;20043;-77
2020/12/18 09:55:56;;;;;;;1.15;0.50;;;20.70;44.70;;;;;;5045864;28;20024;-77
2020/12/18 09:58:21;;;;;;;1.05;0.20;;;20.70;44.80;;;;;;5061990;28;20025;-77
2020/12/18 10:00:48;;;;;;;0.38;0.30;;;20.70;44.80;;;;;;5028174;28;20044;-77
2020/12/18 10:03:20;;;;;;;0.20;0.20;;;20.70;44.80;;;;;;5040753;28;20043;-77
2020/12/18 10:05:48;;;;;;;0.28;0.28;;;20.70;44.80;;;;;;5026136;28;20461;-77
2020/12/18 10:08:17;;;;;;;0.30;0.30;;;20.70;44.70;;;;;;5030308;28;20083;-77
2020/12/18 10:10:42;;;;;;;0.43;0.40;;;20.70;44.70;;;;;;5043867;28;20027;-77
2020/12/18 10:13:08;;;;;;;0.30;0.30;;;20.70;44.70;;;;;;5042708;28;20036;-77
2020/12/18 10:15:34;;;;;;;0.30;0.30;;;20.70;44.70;;;;;;5019614;28;20044;-76
2020/12/18 10:17:59;;;;;;;0.82;0.43;;;20.70;44.60;;;;;;5018933;28;20454;-76
2020/12/18 10:20:25;;;;;;;0.35;0.28;;;20.80;44.60;;;;;;5034566;28;20037;-74
2020/12/18 10:22:50;;;;;;;0.20;0.20;;;20.80;44.50;;;;;;5035217;28;20114;-76
2020/12/18 10:25:16;;;;;;;1.17;0.63;;;20.80;44.50;;;;;;5034989;28;20064;-76
2020/12/18 10:27:45;;;;;;;0.50;0.20;;;20.90;44.40;;;;;;5037238;28;20028;-74
2020/12/18 10:30:16;;;;;;;0.40;0.40;;;20.90;44.40;;;;;;5038481;28;20027;-74
2020/12/18 10:32:42;;;;;;;0.60;0.40;;;20.90;44.30;;;;;;5039015;28;20059;-74
2020/12/18 10:35:08;;;;;;;0.77;0.38;;;20.90;44.30;;;;;;5038617;28;20027;-74
2020/12/18 10:37:34;;;;;;;0.95;0.30;;;20.90;44.20;;;;;;5056117;28;20017;-74
2020/12/18 10:39:59;;;;;;;2.47;0.40;;;21.00;44.30;;;;;;5057108;28;20039;-74
2020/12/18 10:42:25;;;;;;;0.03;0.03;;;20.90;44.20;;;;;;5057949;28;20074;-75
2020/12/18 10:44:50;;;;;;;1.33;0.57;;;21.00;44.20;;;;;;5038996;28;20029;-75
2020/12/18 10:47:16;;;;;;;0.30;0.30;;;21.00;44.20;;;;;;5038541;28;20063;-74
2020/12/18 10:49:41;;;;;;;0.75;0.30;;;21.00;44.20;;;;;;5055812;28;20032;-75
2020/12/18 10:52:07;;;;;;;3.53;0.65;;;20.90;44.30;;;;;;5056056;28;20579;-75
2020/12/18 10:54:33;;;;;;;0.65;0.28;;;21.00;44.30;;;;;;5038287;28;20036;-74
2020/12/18 10:56:58;;;;;;;1.33;0.47;;;21.00;44.40;;;;;;5038095;28;20040;-74
2020/12/18 10:59:26;;;;;;;2.65;0.40;;;21.00;44.40;;;;;;5023482;28;20063;-74
2020/12/18 11:01:52;;;;;;;0.40;0.40;;;21.00;44.30;;;;;;5054668;28;20017;-74
2020/12/18 11:04:18;;;;;;;0.40;0.30;;;21.00;44.30;;;;;;5037796;28;20037;-74
2020/12/18 11:06:44;;;;;;;2.15;0.50;;;21.00;44.30;;;;;;5055146;28;20024;-74
2020/12/18 11:09:09;;;;;;;0.40;0.40;;;21.00;44.40;;;;;;5054351;28;20024;-74
2020/12/18 11:11:35;;;;;;;0.60;0.20;;;21.00;44.40;;;;;;5055317;28;20096;-75
2020/12/18 11:14:01;;;;;;;0.35;0.25;;;21.00;45.10;;;;;;5055628;28;20017;-73
2020/12/18 11:16:26;;;;;;;1.38;0.40;;;21.00;44.40;;;;;;5054922;28;20021;-74
2020/12/18 11:18:52;;;;;;;0.60;0.50;;;21.00;44.40;;;;;;5053074;28;20040;-74
2020/12/18 11:21:28;;;;;;;0.75;0.32;;;21.00;44.40;;;;;;5054001;28;20091;-74
2020/12/18 11:23:54;;;;;;;0.20;0.20;;;21.00;44.40;;;;;;5038503;28;20426;-75
2020/12/18 11:26:20;;;;;;;0.28;0.20;;;21.00;44.50;;;;;;5055312;28;20120;-74
2020/12/18 11:28:45;;;;;;;0.40;0.40;;;21.00;44.40;;;;;;5055353;28;20035;-75
2020/12/18 11:31:12;;;;;;;1.13;0.30;;;21.00;44.40;;;;;;5055128;28;20025;-75
2020/12/18 11:33:37;;;;;;;0.20;0.20;;;21.10;44.50;;;;;;5036912;28;20504;-75
2020/12/18 11:36:03;;;;;;;1.40;0.45;;;21.10;44.30;;;;;;5037417;28;20033;-75
2020/12/18 11:38:28;;;;;;;1.17;0.40;;;21.10;44.30;;;;;;5054583;28;20055;-75
2020/12/18 11:40:54;;;;;;;1.27;0.47;;;21.10;44.30;;;;;;5054996;28;20480;-76
2020/12/18 11:43:19;;;;;;;0.50;0.30;;;21.10;44.30;;;;;;5053810;28;20025;-75
2020/12/18 11:45:45;;;;;;;0.35;0.20;;;21.10;44.20;;;;;;5055175;28;20025;-76
2020/12/18 11:48:11;;;;;;;0.80;0.50;;;21.10;44.20;;;;;;5053434;28;20025;-75
2020/12/18 11:50:36;;;;;;;0.47;0.15;;;21.20;44.30;;;;;;5053194;28;20067;-75
2020/12/18 11:53:04;;;;;;;4.80;0.35;;;21.20;44.20;;;;;;5053718;28;20087;-75
2020/12/18 11:55:29;;;;;;;0.57;0.38;;;21.20;44.10;;;;;;5054251;28;20032;-75
2020/12/18 11:57:55;;;;;;;0.75;0.30;;;21.20;44.00;;;;;;5054608;28;20033;-75
2020/12/18 12:00:21;;;;;;;0.35;0.22;;;21.30;44.10;;;;;;5067111;28;20029;-74
2020/12/18 12:02:50;;;;;;;0.98;0.38;;;21.30;43.90;;;;;;5058084;28;20495;-74
2020/12/18 12:05:19;;;;;;;1.42;0.40;;;21.30;43.90;;;;;;5057305;28;20103;-74
2020/12/18 12:07:44;;;;;;;0.28;0.28;;;21.30;43.70;;;;;;5056809;28;20492;-74
2020/12/18 12:10:10;;;;;;;0.75;0.20;;;21.40;43.70;;;;;;5039763;28;20086;-74
2020/12/18 12:12:36;;;;;;;0.20;0.20;;;21.40;43.60;;;;;;5039118;28;20119;-75
2020/12/18 12:15:03;;;;;;;1.08;0.43;;;21.40;43.50;;;;;;5056595;28;20021;-75
2020/12/18 12:17:29;;;;;;;0.52;0.40;;;21.50;43.50;;;;;;5055483;28;20499;-74
2020/12/18 12:20:04;;;;;;;0.20;0.20;;;21.50;43.40;;;;;;5056645;28;20103;-74
2020/12/18 12:22:29;;;;;;;0.20;0.20;;;21.50;43.30;;;;;;5056581;28;20067;-74
2020/12/18 12:24:55;;;;;;;0.88;0.30;;;21.50;43.40;;;;;;5038845;28;20068;-74
2020/12/18 12:27:24;;;;;;;0.98;0.35;;;21.40;43.30;;;;;;5074028;28;20040;-74
2020/12/18 12:29:50;;;;;;;0.25;0.25;;;21.40;43.30;;;;;;5073792;28;20017;-74
2020/12/18 12:32:16;;;;;;;0.20;0.20;;;21.40;43.30;;;;;;5056988;28;20044;-74
2020/12/18 12:34:48;;;;;;;0.70;0.30;;;21.40;43.40;;;;;;5055810;28;20373;-74
2020/12/18 12:37:14;;;;;;;1.65;0.20;;;21.30;43.40;;;;;;5055968;28;20052;-74
2020/12/18 12:39:40;;;;;;;0.85;0.25;;;21.30;43.50;;;;;;5055618;28;20519;-74
2020/12/18 12:42:05;;;;;;;0.75;0.35;;;21.20;43.50;;;;;;5055444;28;20064;-74
2020/12/18 12:44:31;;;;;;;0.85;0.10;;;21.20;43.60;;;;;;5055706;28;20028;-74
2020/12/18 12:46:57;;;;;;;0.98;0.20;;;21.10;43.80;;;;;;5056777;28;20117;-75
2020/12/18 12:49:23;;;;;;;0.20;0.20;;;21.20;44.00;;;;;;5055316;28;20128;-75
2020/12/18 12:51:48;;;;;;;1.13;0.30;;;21.10;43.80;;;;;;5056318;28;20427;-74